createdAt,value
2022-11-16T00:00:13.444Z,3.73
2022-11-16T00:02:43.268Z,3.74
2022-11-16T00:05:11.633Z,3.72
2022-11-16T00:07:39.686Z,3.86
2022-11-16T00:10:09.211Z,3.87
2022-11-16T00:12:37.666Z,3.79
2022-11-16T00:15:07.375Z,3.81
2022-11-16T00:17:35.834Z,3.75
2022-11-16T00:20:06.503Z,3.93
2022-11-16T00:22:34.670Z,3.79
2022-11-16T00:25:03.198Z,3.83
2022-11-16T00:27:31.651Z,3.77
2022-11-16T00:30:00.105Z,3.73
2022-11-16T00:32:28.713Z,3.86
2022-11-16T00:34:57.239Z,3.80
2022-11-16T00:37:26.728Z,3.79
2022-11-16T00:39:55.160Z,3.74
2022-11-16T00:42:23.653Z,3.61
2022-11-16T00:44:52.321Z,3.60
2022-11-16T00:47:20.876Z,3.46
2022-11-16T00:49:49.031Z,3.61
2022-11-16T00:52:17.584Z,3.66
2022-11-16T00:54:47.520Z,3.73
2022-11-16T00:57:16.114Z,3.65
2022-11-16T00:59:45.434Z,3.65
2022-11-16T01:02:13.901Z,3.59
2022-11-16T01:04:42.643Z,3.60
2022-11-16T01:07:11.210Z,3.32
2022-11-16T01:09:39.694Z,3.49
2022-11-16T01:12:10.678Z,3.55
2022-11-16T01:14:39.795Z,3.59
2022-11-16T01:17:08.635Z,3.62
2022-11-16T01:19:36.750Z,3.40
2022-11-16T01:22:05.561Z,3.35
2022-11-16T01:24:34.184Z,3.39
2022-11-16T01:27:02.629Z,3.41
2022-11-16T01:29:36.038Z,3.45
2022-11-16T01:32:04.559Z,3.25
2022-11-16T01:34:33.281Z,3.35
2022-11-16T01:37:07.913Z,3.38
2022-11-16T01:39:40.003Z,3.46
2022-11-16T01:42:11.812Z,3.63
2022-11-16T01:45:24.913Z,3.84
2022-11-16T01:47:56.752Z,3.61
2022-11-16T01:50:29.528Z,3.40
2022-11-16T01:53:00.835Z,3.38
2022-11-16T01:55:35.073Z,3.31
2022-11-16T01:58:18.894Z,3.45
2022-11-16T02:00:52.457Z,3.46
2022-11-16T02:03:38.936Z,3.51
2022-11-16T02:06:32.763Z,3.61
2022-11-16T02:09:48.802Z,3.55
2022-11-16T02:12:31.893Z,3.55
2022-11-16T02:15:10.387Z,3.47
2022-11-16T02:17:49.901Z,3.58
2022-11-16T02:20:44.532Z,3.57
2022-11-16T02:23:27.539Z,3.63
2022-11-16T02:26:04.324Z,3.63
2022-11-16T02:28:42.172Z,3.71
2022-11-16T02:31:16.992Z,3.76
2022-11-16T02:33:48.145Z,3.66
2022-11-16T02:36:20.465Z,3.55
2022-11-16T02:38:52.633Z,3.56
2022-11-16T02:41:22.946Z,3.56
2022-11-16T02:43:54.406Z,3.43
2022-11-16T02:46:28.173Z,3.52
2022-11-16T02:48:59.149Z,3.53
2022-11-16T02:51:28.974Z,3.52
2022-11-16T02:54:02.695Z,3.35
2022-11-16T02:56:41.339Z,3.46
2022-11-16T02:59:14.139Z,3.60
2022-11-16T03:01:50.722Z,3.52
2022-11-16T03:04:22.932Z,3.64
2022-11-16T03:06:52.351Z,3.57
2022-11-16T03:09:23.437Z,3.62
2022-11-16T03:12:01.304Z,3.55
2022-11-16T03:14:36.709Z,3.58
2022-11-16T03:17:09.408Z,3.50
2022-11-16T03:19:41.480Z,3.49
2022-11-16T03:22:14.017Z,3.52
2022-11-16T03:24:42.717Z,3.33
2022-11-16T03:27:20.920Z,3.31
2022-11-16T03:29:56.889Z,3.32
2022-11-16T03:32:30.566Z,3.28
2022-11-16T03:35:01.742Z,3.24
2022-11-16T03:37:31.228Z,3.28
2022-11-16T03:40:01.989Z,3.10
2022-11-16T03:42:34.110Z,3.23
2022-11-16T03:45:03.742Z,3.18
2022-11-16T03:47:33.669Z,3.39
2022-11-16T03:50:02.390Z,3.27
2022-11-16T03:52:31.283Z,3.12
2022-11-16T03:55:00.301Z,3.26
2022-11-16T03:57:29.077Z,3.06
2022-11-16T04:00:00.539Z,3.22
2022-11-16T04:02:31.328Z,3.34
2022-11-16T04:05:20.084Z,3.30
2022-11-16T04:08:06.660Z,3.40
2022-11-16T04:10:52.880Z,3.38
2022-11-16T04:13:45.034Z,3.04
2022-11-16T04:16:31.281Z,3.14
2022-11-16T04:19:18.563Z,3.19
2022-11-16T04:22:08.435Z,3.23
2022-11-16T04:24:40.412Z,3.13
2022-11-16T04:27:24.684Z,3.18
2022-11-16T04:29:53.380Z,3.20
2022-11-16T04:32:41.757Z,3.09
2022-11-16T04:35:28.249Z,3.23
2022-11-16T04:38:00.717Z,3.21
2022-11-16T04:40:34.046Z,3.02
2022-11-16T04:43:04.413Z,3.39
2022-11-16T04:45:53.724Z,3.23
2022-11-16T04:48:26.267Z,3.40
2022-11-16T04:50:56.280Z,3.55
2022-11-16T04:53:28.038Z,3.48
2022-11-16T04:56:06.085Z,3.60
2022-11-16T04:58:35.918Z,3.40
2022-11-16T05:01:05.027Z,3.37
2022-11-16T05:03:34.580Z,3.41
2022-11-16T05:06:03.179Z,3.40
2022-11-16T05:08:33.336Z,3.56
2022-11-16T05:11:02.452Z,3.53
2022-11-16T05:13:31.136Z,3.56
2022-11-16T05:16:00.438Z,3.59
2022-11-16T05:18:29.236Z,3.63
2022-11-16T05:21:02.661Z,3.50
2022-11-16T05:23:54.578Z,3.45
2022-11-16T05:26:25.198Z,3.47
2022-11-16T05:28:54.997Z,3.29
2022-11-16T05:31:23.443Z,3.18
2022-11-16T05:33:52.059Z,3.25
2022-11-16T05:36:21.475Z,3.10
2022-11-16T05:38:56.271Z,3.18
2022-11-16T05:41:27.324Z,3.14
2022-11-16T05:43:55.625Z,3.19
2022-11-16T05:46:24.717Z,2.87
2022-11-16T05:48:54.420Z,3.16
2022-11-16T05:51:23.351Z,3.21
2022-11-16T05:53:54.766Z,3.16
2022-11-16T05:56:24.827Z,3.13
2022-11-16T05:58:54.977Z,3.05
2022-11-16T06:01:23.945Z,2.93
2022-11-16T06:03:52.874Z,2.88
2022-11-16T06:06:21.473Z,3.05
2022-11-16T06:08:51.533Z,2.98
2022-11-16T06:11:29.128Z,3.08
2022-11-16T06:14:01.045Z,3.05
2022-11-16T06:16:29.658Z,2.97
2022-11-16T06:18:59.132Z,3.03
2022-11-16T06:21:27.715Z,2.90
2022-11-16T06:23:56.299Z,2.71
2022-11-16T06:26:26.323Z,2.88
2022-11-16T06:28:55.301Z,2.86
2022-11-16T06:31:24.817Z,3.07
2022-11-16T06:33:54.304Z,3.10
2022-11-16T06:36:27.130Z,2.89
2022-11-16T06:38:55.611Z,2.98
2022-11-16T06:41:27.203Z,3.10
2022-11-16T06:43:55.468Z,2.98
2022-11-16T06:46:28.514Z,2.88
2022-11-16T06:48:58.170Z,3.11
2022-11-16T06:51:26.794Z,3.07
2022-11-16T06:53:55.332Z,3.14
2022-11-16T06:56:24.380Z,3.13
2022-11-16T06:58:59.147Z,3.02
2022-11-16T07:01:29.664Z,3.20
2022-11-16T07:04:04.573Z,3.33
2022-11-16T07:06:34.170Z,3.32
2022-11-16T07:09:03.282Z,3.28
2022-11-16T07:11:33.896Z,3.38
2022-11-16T07:14:04.388Z,3.62
2022-11-16T07:16:32.789Z,3.66
2022-11-16T07:19:03.533Z,3.36
2022-11-16T07:21:34.160Z,3.24
2022-11-16T07:24:06.232Z,3.19
2022-11-16T07:26:34.949Z,3.33
2022-11-16T07:29:11.292Z,3.43
2022-11-16T07:31:44.050Z,3.63
2022-11-16T07:34:38.475Z,3.53
2022-11-16T07:37:10.198Z,3.40
2022-11-16T07:39:39.012Z,3.37
2022-11-16T07:42:11.836Z,3.31
2022-11-16T07:45:02.051Z,3.50
2022-11-16T07:47:30.505Z,3.48
2022-11-16T07:49:59.128Z,3.40
2022-11-16T07:52:29.224Z,3.30
2022-11-16T07:55:09.197Z,3.44
2022-11-16T07:57:37.791Z,3.57
2022-11-16T08:00:11.765Z,3.64
2022-11-16T08:02:43.253Z,3.51
2022-11-16T08:05:18.568Z,3.57
2022-11-16T08:07:47.617Z,3.46
2022-11-16T08:10:16.701Z,3.49
2022-11-16T08:12:45.196Z,3.53
2022-11-16T08:15:16.362Z,3.68
2022-11-16T08:17:44.983Z,3.70
2022-11-16T08:20:14.730Z,3.56
2022-11-16T08:22:45.160Z,3.60
2022-11-16T08:25:13.947Z,3.53
2022-11-16T08:27:45.780Z,3.63
2022-11-16T08:30:16.465Z,3.66
2022-11-16T08:32:46.278Z,3.61
2022-11-16T08:35:16.603Z,3.62
2022-11-16T08:37:46.189Z,3.46
2022-11-16T08:40:15.829Z,3.28
2022-11-16T08:42:44.882Z,3.19
2022-11-16T08:45:14.337Z,3.20
2022-11-16T08:47:44.972Z,3.32
2022-11-16T08:50:13.416Z,3.26
2022-11-16T08:52:41.526Z,3.48
2022-11-16T08:55:10.625Z,3.54
2022-11-16T08:57:40.367Z,3.70
2022-11-16T09:00:13.035Z,3.59
2022-11-16T09:02:41.742Z,3.51
2022-11-16T09:05:12.220Z,3.46
2022-11-16T09:07:40.831Z,3.63
2022-11-16T09:10:10.359Z,3.53
2022-11-16T09:12:39.619Z,3.61
2022-11-16T09:15:09.249Z,3.78
2022-11-16T09:17:37.974Z,3.73
2022-11-16T09:20:07.687Z,3.88
2022-11-16T09:22:37.346Z,3.91
2022-11-16T09:25:06.878Z,3.79
2022-11-16T09:27:35.390Z,3.75
2022-11-16T09:30:03.846Z,4.01
2022-11-16T09:32:32.521Z,4.08
2022-11-16T09:35:25.450Z,3.73
2022-11-16T09:37:55.067Z,3.93
2022-11-16T09:40:23.593Z,3.75
2022-11-16T09:42:59.137Z,3.58
2022-11-16T09:45:32.208Z,3.57
2022-11-16T09:48:03.175Z,3.78
2022-11-16T09:50:37.536Z,3.89
2022-11-16T09:53:15.068Z,4.16
2022-11-16T09:55:46.976Z,4.30
2022-11-16T09:58:19.243Z,4.35
2022-11-16T10:00:51.501Z,4.17
2022-11-16T10:03:20.035Z,4.30
2022-11-16T10:05:52.847Z,4.46
2022-11-16T10:08:26.619Z,4.33
2022-11-16T10:11:00.909Z,4.17
2022-11-16T10:13:42.165Z,4.20
2022-11-16T10:16:14.970Z,4.32
2022-11-16T10:18:49.898Z,4.29
2022-11-16T10:21:34.878Z,4.15
2022-11-16T10:24:24.876Z,4.12
2022-11-16T10:27:04.280Z,4.07
2022-11-16T10:29:41.703Z,4.18
2022-11-16T10:32:17.374Z,4.29
2022-11-16T10:34:52.220Z,4.21
2022-11-16T10:37:21.039Z,4.15
2022-11-16T10:39:53.144Z,4.06
2022-11-16T10:42:25.191Z,4.22
2022-11-16T10:44:57.995Z,4.36
2022-11-16T10:47:33.911Z,4.36
2022-11-16T10:50:05.076Z,4.39
2022-11-16T10:52:33.532Z,4.33
2022-11-16T10:55:03.374Z,4.52
2022-11-16T10:57:55.696Z,4.49
2022-11-16T11:00:38.997Z,4.62
2022-11-16T11:03:07.998Z,4.46
2022-11-16T11:05:37.312Z,4.65
2022-11-16T11:08:07.842Z,4.67
2022-11-16T11:10:39.829Z,4.82
2022-11-16T11:13:22.343Z,4.98
2022-11-16T11:15:53.288Z,4.88
2022-11-16T11:18:27.812Z,4.95
2022-11-16T11:21:07.454Z,4.80
2022-11-16T11:23:42.920Z,4.65
2022-11-16T11:26:30.528Z,4.92
2022-11-16T11:29:09.572Z,4.97
2022-11-16T11:31:44.141Z,4.54
2022-11-16T11:34:17.844Z,4.74
2022-11-16T11:36:48.810Z,4.71
2022-11-16T11:39:32.020Z,4.81
2022-11-16T11:42:21.578Z,4.71
2022-11-16T11:44:57.135Z,4.66
2022-11-16T11:50:22.082Z,4.32
2022-11-16T11:53:02.204Z,4.61
2022-11-16T11:55:38.018Z,4.65
2022-11-16T11:58:17.255Z,4.66
2022-11-16T12:01:08.127Z,4.74
2022-11-16T12:03:59.383Z,4.64
2022-11-16T12:06:32.620Z,4.63
2022-11-16T12:09:06.440Z,4.61
2022-11-16T12:11:46.472Z,4.45
2022-11-16T12:14:26.773Z,4.53
2022-11-16T12:17:00.546Z,4.52
2022-11-16T12:19:41.714Z,4.73
2022-11-16T12:22:18.517Z,4.30
2022-11-16T12:24:57.818Z,4.70
2022-11-16T12:27:36.285Z,4.54
2022-11-16T12:30:10.479Z,4.22
2022-11-16T12:32:54.565Z,4.05
2022-11-16T12:35:40.616Z,4.46
2022-11-16T12:38:26.391Z,4.52
2022-11-16T12:41:08.063Z,4.49
2022-11-16T12:43:42.534Z,4.21
2022-11-16T12:46:19.555Z,3.65
2022-11-16T12:49:05.185Z,2.93
2022-11-16T12:51:42.313Z,2.90
2022-11-16T12:54:24.927Z,2.85
2022-11-16T12:56:57.838Z,2.70
2022-11-16T12:59:39.162Z,2.55
2022-11-16T13:02:16.488Z,2.47
2022-11-16T13:04:48.068Z,2.39
2022-11-16T13:07:20.969Z,2.25
2022-11-16T13:09:52.389Z,2.06
2022-11-16T13:12:23.626Z,1.99
2022-11-16T13:14:54.238Z,1.74
2022-11-16T13:17:26.926Z,1.99
2022-11-16T13:20:10.238Z,1.92
2022-11-16T13:22:42.773Z,1.64
2022-11-16T13:25:19.454Z,1.45
2022-11-16T13:27:52.696Z,1.72
2022-11-16T13:30:22.799Z,1.51
2022-11-16T13:33:02.905Z,1.70
2022-11-16T13:35:31.658Z,1.74
2022-11-16T13:38:00.296Z,1.63
2022-11-16T13:40:30.291Z,1.58
2022-11-16T13:43:18.542Z,1.56
2022-11-16T13:45:57.019Z,1.66
2022-11-16T13:48:30.718Z,1.63
2022-11-16T13:51:01.052Z,1.57
2022-11-16T13:56:24.178Z,1.44
2022-11-16T13:58:57.368Z,1.43
2022-11-16T14:01:26.657Z,1.20
2022-11-16T14:04:40.858Z,1.54
2022-11-16T14:07:35.198Z,1.60
2022-11-16T14:10:08.065Z,1.25
2022-11-16T14:12:59.854Z,1.08
2022-11-16T14:15:35.664Z,1.10
2022-11-16T14:18:31.773Z,1.28
2022-11-16T14:21:05.865Z,1.15
2022-11-16T14:23:57.271Z,1.29
2022-11-16T14:26:28.444Z,0.77
2022-11-16T14:29:15.936Z,0.89
2022-11-16T14:31:50.004Z,0.72
2022-11-16T14:34:20.955Z,0.82
2022-11-16T14:36:50.779Z,0.89
2022-11-16T14:39:28.881Z,0.63
2022-11-16T14:41:59.676Z,0.74
2022-11-16T14:44:30.749Z,0.39
2022-11-16T14:46:59.012Z,0.66
2022-11-16T14:49:28.672Z,0.76
2022-11-16T14:52:01.164Z,0.80
2022-11-16T14:54:35.388Z,0.53
2022-11-16T14:57:05.385Z,0.59
2022-11-16T14:59:34.185Z,0.76
2022-11-16T15:02:05.764Z,0.92
2022-11-16T15:04:34.282Z,0.67
2022-11-16T15:07:04.694Z,0.76
2022-11-16T15:09:37.354Z,0.64
2022-11-16T15:12:26.240Z,0.74
2022-11-16T15:14:56.418Z,0.78
2022-11-16T15:17:31.855Z,0.64
2022-11-16T15:20:03.281Z,0.45
2022-11-16T15:22:34.363Z,0.54
2022-11-16T15:25:05.838Z,0.63
2022-11-16T15:27:40.012Z,0.57
2022-11-16T15:30:17.552Z,0.70
2022-11-16T15:32:48.829Z,0.79
2022-11-16T15:35:21.012Z,0.51
2022-11-16T15:37:50.024Z,0.44
2022-11-16T15:40:20.875Z,0.77
2022-11-16T15:42:51.467Z,0.78
2022-11-16T15:45:22.729Z,0.67
2022-11-16T15:47:53.850Z,0.60
2022-11-16T15:50:24.433Z,0.71
2022-11-16T15:52:55.539Z,0.91
2022-11-16T15:55:32.871Z,1.04
2022-11-16T15:58:03.614Z,0.57
2022-11-16T16:00:34.820Z,0.85
2022-11-16T16:03:06.976Z,1.08
2022-11-16T16:05:39.649Z,1.19
2022-11-16T16:08:26.058Z,1.17
2022-11-16T16:11:09.502Z,1.22
2022-11-16T16:13:39.722Z,0.94
2022-11-16T16:16:14.539Z,1.13
2022-11-16T16:18:43.438Z,1.17
2022-11-16T16:21:12.350Z,0.97
2022-11-16T16:23:45.735Z,1.08
2022-11-16T16:26:16.067Z,0.77
2022-11-16T16:28:44.198Z,1.03
2022-11-16T16:31:13.035Z,0.90
2022-11-16T16:33:41.967Z,1.10
2022-11-16T16:36:11.894Z,1.04
2022-11-16T16:38:40.584Z,0.97
2022-11-16T16:41:09.246Z,0.92
2022-11-16T16:43:39.139Z,1.19
2022-11-16T16:46:08.304Z,1.15
2022-11-16T16:48:40.370Z,1.24
2022-11-16T16:51:14.019Z,1.24
2022-11-16T16:53:42.474Z,1.19
2022-11-16T16:56:16.039Z,1.46
2022-11-16T16:58:45.755Z,1.29
2022-11-16T17:01:14.447Z,1.03
2022-11-16T17:03:43.114Z,1.01
2022-11-16T17:06:11.708Z,1.01
2022-11-16T17:08:40.154Z,0.67
2022-11-16T17:11:10.171Z,1.28
2022-11-16T17:13:38.550Z,1.35
2022-11-16T17:16:09.679Z,1.18
2022-11-16T17:18:38.596Z,1.22
2022-11-16T17:21:08.274Z,0.93
2022-11-16T17:23:37.311Z,1.19
2022-11-16T17:26:07.009Z,1.30
2022-11-16T17:28:35.757Z,1.35
2022-11-16T17:31:05.331Z,1.08
2022-11-16T17:33:36.882Z,0.93
2022-11-16T17:36:06.435Z,0.97
2022-11-16T17:38:35.973Z,1.14
2022-11-16T17:41:06.724Z,1.06
2022-11-16T17:43:35.123Z,0.99
2022-11-16T17:46:05.601Z,1.01
2022-11-16T17:48:35.334Z,1.25
2022-11-16T17:51:04.626Z,1.28
2022-11-16T17:53:34.538Z,1.17
2022-11-16T17:56:03.583Z,1.21
2022-11-16T17:58:32.491Z,1.18
2022-11-16T18:01:01.575Z,1.22
2022-11-16T18:03:30.222Z,1.29
2022-11-16T18:06:08.640Z,1.37
2022-11-16T18:08:37.959Z,1.19
2022-11-16T18:11:07.798Z,1.43
2022-11-16T18:13:36.826Z,1.34
2022-11-16T18:16:06.545Z,1.42
2022-11-16T18:18:35.627Z,1.38
2022-11-16T18:21:06.115Z,1.35
2022-11-16T18:23:35.720Z,0.92
2022-11-16T18:26:09.471Z,1.04
2022-11-16T18:28:38.364Z,1.14
2022-11-16T18:31:08.271Z,1.35
2022-11-16T18:33:38.048Z,1.15
2022-11-16T18:36:09.528Z,0.97
2022-11-16T18:38:38.578Z,1.08
2022-11-16T18:41:07.925Z,1.00
2022-11-16T18:43:36.487Z,0.91
2022-11-16T18:46:05.534Z,1.13
2022-11-16T18:48:34.233Z,1.20
2022-11-16T18:51:04.008Z,0.94
2022-11-16T18:53:34.147Z,0.87
2022-11-16T18:56:03.230Z,0.91
2022-11-16T19:01:21.089Z,0.99
2022-11-16T19:03:50.428Z,0.94
2022-11-16T19:06:19.965Z,1.14
2022-11-16T19:08:56.500Z,1.23
2022-11-16T19:11:25.898Z,1.24
2022-11-16T19:13:55.544Z,1.24
2022-11-16T19:16:25.555Z,1.13
2022-11-16T19:18:55.310Z,1.03
2022-11-16T19:21:24.586Z,1.15
2022-11-16T19:23:56.132Z,1.14
2022-11-16T19:26:26.343Z,1.22
2022-11-16T19:28:55.416Z,0.99
2022-11-16T19:31:26.223Z,0.98
2022-11-16T19:33:56.378Z,0.93
2022-11-16T19:36:26.408Z,1.00
2022-11-16T19:38:57.124Z,1.00
2022-11-16T19:41:27.211Z,0.85
2022-11-16T19:44:00.179Z,1.00
2022-11-16T19:46:30.997Z,0.97
2022-11-16T19:49:00.778Z,1.00
2022-11-16T19:51:31.521Z,1.10
2022-11-16T19:54:04.251Z,1.14
2022-11-16T19:56:33.503Z,1.00
2022-11-16T19:59:02.987Z,0.86
2022-11-16T20:01:31.615Z,1.21
2022-11-16T20:04:02.630Z,1.22
2022-11-16T20:06:33.141Z,1.27
2022-11-16T20:09:08.932Z,1.25
2022-11-16T20:11:39.898Z,1.25
2022-11-16T20:14:09.797Z,1.25
2022-11-16T20:16:40.088Z,1.27
2022-11-16T20:19:10.091Z,1.07
2022-11-16T20:21:39.933Z,1.22
2022-11-16T20:24:12.747Z,0.98
2022-11-16T20:26:43.872Z,0.86
2022-11-16T20:29:13.050Z,1.04
2022-11-16T20:31:43.170Z,0.96
2022-11-16T20:34:14.566Z,0.87
2022-11-16T20:36:44.580Z,1.16
2022-11-16T20:39:16.013Z,0.99
2022-11-16T20:41:44.979Z,0.65
2022-11-16T20:44:16.786Z,0.81
2022-11-16T20:46:45.836Z,0.69
2022-11-16T20:49:15.296Z,0.66
2022-11-16T20:51:46.175Z,0.70
2022-11-16T20:54:16.002Z,0.92
2022-11-16T20:56:45.182Z,0.79
2022-11-16T20:59:13.616Z,0.75
2022-11-16T21:01:47.588Z,0.78
2022-11-16T21:04:16.543Z,0.71
2022-11-16T21:06:45.475Z,0.99
2022-11-16T21:09:22.584Z,1.01
2022-11-16T21:12:08.765Z,0.94
2022-11-16T21:14:37.143Z,0.83
2022-11-16T21:17:05.786Z,0.98
2022-11-16T21:19:34.211Z,1.20
2022-11-16T21:22:02.849Z,1.09
2022-11-16T21:24:33.594Z,0.91
2022-11-16T21:27:02.003Z,0.94
2022-11-16T21:29:30.507Z,0.97
2022-11-16T21:31:59.423Z,1.06
2022-11-16T21:34:28.682Z,1.01
2022-11-16T21:36:57.119Z,0.72
2022-11-16T21:39:25.575Z,0.93
2022-11-16T21:41:55.281Z,1.07
2022-11-16T21:44:23.696Z,0.90
2022-11-16T21:46:53.450Z,0.58
2022-11-16T21:49:21.856Z,0.91
2022-11-16T21:51:50.336Z,1.00
2022-11-16T21:54:18.706Z,1.09
2022-11-16T21:56:47.070Z,0.93
2022-11-16T21:59:16.853Z,1.11
2022-11-16T22:02:03.066Z,0.94
2022-11-16T22:04:48.838Z,1.02
2022-11-16T22:07:37.824Z,0.97
2022-11-16T22:10:08.737Z,1.08
2022-11-16T22:12:38.116Z,0.71
2022-11-16T22:15:09.215Z,0.60
2022-11-16T22:17:37.693Z,0.70
2022-11-16T22:20:07.366Z,0.45
2022-11-16T22:22:35.410Z,0.72
2022-11-16T22:25:04.213Z,0.70
2022-11-16T22:27:42.389Z,0.62
2022-11-16T22:30:22.234Z,0.78
2022-11-16T22:32:50.678Z,0.73
2022-11-16T22:35:19.405Z,0.68
2022-11-16T22:37:47.530Z,0.87
2022-11-16T22:40:17.879Z,0.82
2022-11-16T22:42:47.548Z,0.61
2022-11-16T22:45:16.159Z,0.35
2022-11-16T22:47:48.654Z,0.74
2022-11-16T22:50:20.691Z,0.63
2022-11-16T22:52:48.768Z,1.09
2022-11-16T22:55:17.177Z,0.86
2022-11-16T22:57:45.727Z,0.88
2022-11-16T23:00:15.131Z,0.88
2022-11-16T23:02:44.988Z,0.72
2022-11-16T23:05:13.900Z,0.79
2022-11-16T23:07:43.930Z,0.89
2022-11-16T23:10:12.367Z,0.65
2022-11-16T23:12:58.417Z,0.80
2022-11-16T23:15:44.440Z,0.79
2022-11-16T23:18:14.477Z,0.85
2022-11-16T23:21:00.348Z,0.71
2022-11-16T23:23:46.077Z,0.71
2022-11-16T23:26:39.238Z,0.66
2022-11-16T23:29:09.876Z,0.83
2022-11-16T23:31:38.858Z,0.79
2022-11-16T23:34:08.599Z,0.73
2022-11-16T23:36:36.949Z,0.68
2022-11-16T23:39:05.463Z,0.91
2022-11-16T23:41:51.670Z,0.78
2022-11-16T23:44:20.416Z,0.65
2022-11-16T23:46:48.824Z,0.59
2022-11-16T23:49:19.100Z,0.62
2022-11-16T23:51:47.588Z,0.71
2022-11-16T23:54:16.368Z,0.74
2022-11-16T23:56:45.130Z,0.40
2022-11-16T23:59:13.913Z,0.47
